KRDR/RDR METAR and TAF weather

Enter ICAO airport designator
Station Type Date Time Source
KRDR METAR 2021/09/16 21:56 UTC NOAA

KRDR 162156Z 32012KT 10SM BKN100 17/10 A2974 RMK AO2A SLP077 T01740095 $


Station Type Date Time Source
KRDR Decoded METAR 2021/09/16 21:56 UTC NOAA

Grand Forks Air Force Base, ND, United States (KRDR) 47-58N 097-24W 278M
Sep 16, 2021 - 05:56 PM EDT / 2021.09.16 2156 UTC
Wind: from the NW (320 degrees) at 14 MPH (12 KT):0
Visibility: 10 mile(s):0
Sky conditions: mostly cloudy
Temperature: 63.3 F (17.4 C)
Dew Point: 49.1 F (9.5 C)
Relative Humidity: 59%
Pressure (altimeter): 29.74 in. Hg (1007 hPa)
ob: KRDR 162156Z 32012KT 10SM BKN100 17/10 A2974 RMK AO2A SLP077 T01740095
cycle: 22

Station Type Date Time Source
KRDR TAF 2021/09/16 18:27 UTC NOAA

TAF TAF KRDR 161800Z 1618/1724 03010G15KT 9999 OVC075 QNH2966INS
BECMG 1701/1702 27009KT 9999 FEW060 QNH2975INS
TEMPO 1704/1707 27012G25KT 9000 -SHRA SCT050 BKN100
BECMG 1712/1713 27015KT 9999 SKC QNH3006INS
BECMG 1715/1716 29015G25KT 9999 SKC 520033 QNH3008INS TX18/1622Z TN10/1712Z

Example: see airport list